sensor_id;sensor_type;location;lat;lon;timestamp;P1;durP1;ratioP1;P2;durP2;ratioP2
59854;SDS011;45732;52.850;6.896;2023-02-28T00:02:17;13.05;;;5.90;;
59854;SDS011;45732;52.850;6.896;2023-02-28T00:04:43;11.32;;;5.63;;
59854;SDS011;45732;52.850;6.896;2023-02-28T00:07:09;13.18;;;5.70;;
59854;SDS011;45732;52.850;6.896;2023-02-28T00:09:35;13.02;;;6.20;;
59854;SDS011;45732;52.850;6.896;2023-02-28T00:12:00;13.10;;;5.63;;
59854;SDS011;45732;52.850;6.896;2023-02-28T00:14:37;10.15;;;5.00;;
59854;SDS011;45732;52.850;6.896;2023-02-28T00:17:03;12.15;;;5.28;;
59854;SDS011;45732;52.850;6.896;2023-02-28T00:19:29;12.20;;;5.22;;
59854;SDS011;45732;52.850;6.896;2023-02-28T00:21:54;10.65;;;5.10;;
59854;SDS011;45732;52.850;6.896;2023-02-28T00:24:20;11.63;;;5.00;;
59854;SDS011;45732;52.850;6.896;2023-02-28T00:26:46;14.52;;;5.25;;
59854;SDS011;45732;52.850;6.896;2023-02-28T00:29:11;12.30;;;5.00;;
59854;SDS011;45732;52.850;6.896;2023-02-28T00:31:37;11.52;;;5.45;;
59854;SDS011;45732;52.850;6.896;2023-02-28T00:34:03;14.07;;;5.88;;
59854;SDS011;45732;52.850;6.896;2023-02-28T00:36:28;10.13;;;5.25;;
59854;SDS011;45732;52.850;6.896;2023-02-28T00:38:54;11.35;;;5.18;;
59854;SDS011;45732;52.850;6.896;2023-02-28T00:41:19;12.02;;;5.63;;
59854;SDS011;45732;52.850;6.896;2023-02-28T00:43:45;11.98;;;5.32;;
59854;SDS011;45732;52.850;6.896;2023-02-28T00:46:11;12.40;;;4.97;;
59854;SDS011;45732;52.850;6.896;2023-02-28T00:48:36;8.48;;;4.90;;
59854;SDS011;45732;52.850;6.896;2023-02-28T00:51:02;10.38;;;4.93;;
59854;SDS011;45732;52.850;6.896;2023-02-28T00:53:28;10.80;;;5.25;;
59854;SDS011;45732;52.850;6.896;2023-02-28T00:55:54;13.13;;;5.30;;
59854;SDS011;45732;52.850;6.896;2023-02-28T00:58:20;10.50;;;4.50;;
59854;SDS011;45732;52.850;6.896;2023-02-28T01:00:46;11.50;;;5.25;;
59854;SDS011;45732;52.850;6.896;2023-02-28T01:03:14;13.48;;;4.90;;
59854;SDS011;45732;52.850;6.896;2023-02-28T01:05:41;9.30;;;4.80;;
59854;SDS011;45732;52.850;6.896;2023-02-28T01:08:07;9.63;;;4.57;;
59854;SDS011;45732;52.850;6.896;2023-02-28T01:10:32;13.57;;;5.40;;
59854;SDS011;45732;52.850;6.896;2023-02-28T01:12:59;12.10;;;5.05;;
59854;SDS011;45732;52.850;6.896;2023-02-28T01:15:24;9.43;;;4.63;;
59854;SDS011;45732;52.850;6.896;2023-02-28T01:17:50;10.07;;;5.22;;
59854;SDS011;45732;52.850;6.896;2023-02-28T01:20:16;10.80;;;4.80;;
59854;SDS011;45732;52.850;6.896;2023-02-28T01:22:42;11.40;;;5.10;;
59854;SDS011;45732;52.850;6.896;2023-02-28T01:25:07;11.73;;;5.20;;
59854;SDS011;45732;52.850;6.896;2023-02-28T01:27:33;10.85;;;4.68;;
59854;SDS011;45732;52.850;6.896;2023-02-28T01:29:59;12.38;;;5.30;;
59854;SDS011;45732;52.850;6.896;2023-02-28T01:32:24;10.35;;;4.50;;
59854;SDS011;45732;52.850;6.896;2023-02-28T01:34:50;9.77;;;4.72;;
59854;SDS011;45732;52.850;6.896;2023-02-28T01:37:16;10.32;;;4.65;;
59854;SDS011;45732;52.850;6.896;2023-02-28T01:39:41;13.35;;;5.45;;
59854;SDS011;45732;52.850;6.896;2023-02-28T01:42:08;11.98;;;5.30;;
59854;SDS011;45732;52.850;6.896;2023-02-28T01:47:21;11.02;;;4.88;;
59854;SDS011;45732;52.850;6.896;2023-02-28T01:49:48;12.13;;;5.00;;
59854;SDS011;45732;52.850;6.896;2023-02-28T01:52:16;10.55;;;5.45;;
59854;SDS011;45732;52.850;6.896;2023-02-28T01:54:44;11.68;;;4.97;;
59854;SDS011;45732;52.850;6.896;2023-02-28T01:57:16;11.82;;;5.50;;
59854;SDS011;45732;52.850;6.896;2023-02-28T01:59:48;12.20;;;5.57;;
59854;SDS011;45732;52.850;6.896;2023-02-28T02:02:23;10.60;;;5.65;;
59854;SDS011;45732;52.850;6.896;2023-02-28T02:05:01;10.23;;;5.30;;
59854;SDS011;45732;52.850;6.896;2023-02-28T02:07:37;13.70;;;5.82;;
59854;SDS011;45732;52.850;6.896;2023-02-28T02:15:08;10.10;;;5.32;;
59854;SDS011;45732;52.850;6.896;2023-02-28T02:17:44;12.60;;;5.72;;
59854;SDS011;45732;52.850;6.896;2023-02-28T02:35:58;12.20;;;5.88;;
59854;SDS011;45732;52.850;6.896;2023-02-28T02:41:23;13.88;;;6.18;;
59854;SDS011;45732;52.850;6.896;2023-02-28T02:46:41;11.70;;;5.85;;
59854;SDS011;45732;52.850;6.896;2023-02-28T02:49:13;11.57;;;6.40;;
59854;SDS011;45732;52.850;6.896;2023-02-28T02:51:44;14.13;;;6.65;;
59854;SDS011;45732;52.850;6.896;2023-02-28T02:54:35;12.20;;;6.88;;
59854;SDS011;45732;52.850;6.896;2023-02-28T02:57:01;10.27;;;6.53;;
59854;SDS011;45732;52.850;6.896;2023-02-28T02:59:31;10.43;;;6.20;;
59854;SDS011;45732;52.850;6.896;2023-02-28T03:02:02;12.50;;;6.50;;
59854;SDS011;45732;52.850;6.896;2023-02-28T03:04:32;12.70;;;6.15;;
59854;SDS011;45732;52.850;6.896;2023-02-28T03:07:03;12.25;;;6.60;;
59854;SDS011;45732;52.850;6.896;2023-02-28T03:09:29;12.27;;;6.35;;
59854;SDS011;45732;52.850;6.896;2023-02-28T03:12:00;10.93;;;6.45;;
59854;SDS011;45732;52.850;6.896;2023-02-28T03:27:42;11.23;;;6.70;;
59854;SDS011;45732;52.850;6.896;2023-02-28T03:30:51;12.02;;;7.03;;
59854;SDS011;45732;52.850;6.896;2023-02-28T03:36:29;17.30;;;6.78;;
59854;SDS011;45732;52.850;6.896;2023-02-28T03:41:46;14.07;;;7.60;;
59854;SDS011;45732;52.850;6.896;2023-02-28T03:44:19;11.43;;;6.65;;
59854;SDS011;45732;52.850;6.896;2023-02-28T03:46:58;12.30;;;6.65;;
59854;SDS011;45732;52.850;6.896;2023-02-28T03:49:41;15.45;;;6.93;;
59854;SDS011;45732;52.850;6.896;2023-02-28T03:52:35;11.75;;;7.25;;
59854;SDS011;45732;52.850;6.896;2023-02-28T03:55:07;10.95;;;6.95;;
59854;SDS011;45732;52.850;6.896;2023-02-28T04:00:09;16.48;;;7.60;;
59854;SDS011;45732;52.850;6.896;2023-02-28T04:02:53;13.73;;;7.40;;
59854;SDS011;45732;52.850;6.896;2023-02-28T04:05:20;13.85;;;6.90;;
59854;SDS011;45732;52.850;6.896;2023-02-28T04:07:47;12.15;;;7.13;;
59854;SDS011;45732;52.850;6.896;2023-02-28T04:10:13;13.13;;;7.50;;
59854;SDS011;45732;52.850;6.896;2023-02-28T04:12:40;13.63;;;7.28;;
59854;SDS011;45732;52.850;6.896;2023-02-28T04:15:06;12.20;;;7.43;;
59854;SDS011;45732;52.850;6.896;2023-02-28T04:17:32;15.35;;;7.97;;
59854;SDS011;45732;52.850;6.896;2023-02-28T04:19:58;14.57;;;8.23;;
59854;SDS011;45732;52.850;6.896;2023-02-28T04:22:24;16.17;;;8.05;;
59854;SDS011;45732;52.850;6.896;2023-02-28T04:24:52;13.18;;;7.97;;
59854;SDS011;45732;52.850;6.896;2023-02-28T04:27:19;13.55;;;8.35;;
59854;SDS011;45732;52.850;6.896;2023-02-28T04:29:46;13.55;;;8.48;;
59854;SDS011;45732;52.850;6.896;2023-02-28T04:32:12;15.40;;;8.20;;
59854;SDS011;45732;52.850;6.896;2023-02-28T04:34:37;14.00;;;8.73;;
59854;SDS011;45732;52.850;6.896;2023-02-28T04:37:03;13.70;;;7.75;;
59854;SDS011;45732;52.850;6.896;2023-02-28T04:39:29;12.88;;;7.50;;
59854;SDS011;45732;52.850;6.896;2023-02-28T04:41:55;13.30;;;7.85;;
59854;SDS011;45732;52.850;6.896;2023-02-28T04:44:21;12.70;;;8.70;;
59854;SDS011;45732;52.850;6.896;2023-02-28T04:46:48;14.38;;;9.52;;
59854;SDS011;45732;52.850;6.896;2023-02-28T04:49:14;15.35;;;8.20;;
59854;SDS011;45732;52.850;6.896;2023-02-28T04:51:40;16.40;;;8.40;;
59854;SDS011;45732;52.850;6.896;2023-02-28T04:54:06;14.07;;;7.97;;
59854;SDS011;45732;52.850;6.896;2023-02-28T04:56:33;13.25;;;8.25;;
59854;SDS011;45732;52.850;6.896;2023-02-28T04:58:59;12.00;;;7.47;;
59854;SDS011;45732;52.850;6.896;2023-02-28T05:01:25;12.27;;;7.97;;
59854;SDS011;45732;52.850;6.896;2023-02-28T05:03:53;10.10;;;7.30;;
59854;SDS011;45732;52.850;6.896;2023-02-28T05:06:21;14.63;;;7.95;;
59854;SDS011;45732;52.850;6.896;2023-02-28T05:08:49;12.50;;;8.27;;
59854;SDS011;45732;52.850;6.896;2023-02-28T05:11:16;16.33;;;9.45;;
59854;SDS011;45732;52.850;6.896;2023-02-28T05:13:44;13.45;;;8.95;;
59854;SDS011;45732;52.850;6.896;2023-02-28T05:16:10;14.85;;;8.73;;
59854;SDS011;45732;52.850;6.896;2023-02-28T05:18:36;18.02;;;9.90;;
59854;SDS011;45732;52.850;6.896;2023-02-28T05:21:02;17.63;;;9.00;;
59854;SDS011;45732;52.850;6.896;2023-02-28T05:23:28;13.07;;;8.30;;
59854;SDS011;45732;52.850;6.896;2023-02-28T05:25:54;11.13;;;7.50;;
59854;SDS011;45732;52.850;6.896;2023-02-28T05:28:20;14.50;;;8.07;;
59854;SDS011;45732;52.850;6.896;2023-02-28T05:30:46;13.75;;;8.55;;
59854;SDS011;45732;52.850;6.896;2023-02-28T05:33:12;12.55;;;7.82;;
59854;SDS011;45732;52.850;6.896;2023-02-28T05:35:39;13.40;;;7.45;;
59854;SDS011;45732;52.850;6.896;2023-02-28T05:38:05;13.75;;;8.48;;
59854;SDS011;45732;52.850;6.896;2023-02-28T05:40:31;12.05;;;8.10;;
59854;SDS011;45732;52.850;6.896;2023-02-28T05:42:56;14.43;;;8.07;;
59854;SDS011;45732;52.850;6.896;2023-02-28T05:45:22;14.13;;;8.38;;
59854;SDS011;45732;52.850;6.896;2023-02-28T05:47:48;14.27;;;8.77;;
59854;SDS011;45732;52.850;6.896;2023-02-28T05:50:13;12.55;;;8.52;;
59854;SDS011;45732;52.850;6.896;2023-02-28T05:52:39;12.38;;;7.85;;
59854;SDS011;45732;52.850;6.896;2023-02-28T05:55:05;13.25;;;7.97;;
59854;SDS011;45732;52.850;6.896;2023-02-28T05:57:31;13.70;;;8.30;;
59854;SDS011;45732;52.850;6.896;2023-02-28T05:59:57;11.93;;;8.13;;
59854;SDS011;45732;52.850;6.896;2023-02-28T06:02:23;13.23;;;8.80;;
59854;SDS011;45732;52.850;6.896;2023-02-28T06:04:48;12.50;;;8.57;;
59854;SDS011;45732;52.850;6.896;2023-02-28T06:07:14;14.70;;;8.75;;
59854;SDS011;45732;52.850;6.896;2023-02-28T06:09:40;14.98;;;8.93;;
59854;SDS011;45732;52.850;6.896;2023-02-28T06:12:06;11.75;;;7.80;;
59854;SDS011;45732;52.850;6.896;2023-02-28T06:14:34;13.88;;;9.00;;
59854;SDS011;45732;52.850;6.896;2023-02-28T06:17:01;11.88;;;7.88;;
59854;SDS011;45732;52.850;6.896;2023-02-28T06:19:27;13.63;;;8.38;;
59854;SDS011;45732;52.850;6.896;2023-02-28T06:21:55;11.70;;;8.30;;
59854;SDS011;45732;52.850;6.896;2023-02-28T06:24:22;15.07;;;10.10;;
59854;SDS011;45732;52.850;6.896;2023-02-28T06:26:49;12.65;;;9.00;;
59854;SDS011;45732;52.850;6.896;2023-02-28T06:29:15;12.80;;;8.60;;
59854;SDS011;45732;52.850;6.896;2023-02-28T06:31:46;11.82;;;7.95;;
59854;SDS011;45732;52.850;6.896;2023-02-28T06:34:13;14.50;;;8.38;;
59854;SDS011;45732;52.850;6.896;2023-02-28T06:36:40;13.13;;;7.65;;
59854;SDS011;45732;52.850;6.896;2023-02-28T06:39:06;12.85;;;8.90;;
59854;SDS011;45732;52.850;6.896;2023-02-28T06:41:33;16.00;;;9.02;;
59854;SDS011;45732;52.850;6.896;2023-02-28T06:44:04;14.27;;;8.60;;
59854;SDS011;45732;52.850;6.896;2023-02-28T06:46:30;13.73;;;8.30;;
59854;SDS011;45732;52.850;6.896;2023-02-28T06:48:56;14.82;;;10.77;;
59854;SDS011;45732;52.850;6.896;2023-02-28T06:51:22;13.25;;;8.32;;
59854;SDS011;45732;52.850;6.896;2023-02-28T06:53:49;15.70;;;9.40;;
59854;SDS011;45732;52.850;6.896;2023-02-28T06:56:16;15.77;;;9.40;;
59854;SDS011;45732;52.850;6.896;2023-02-28T06:58:45;14.82;;;9.60;;
59854;SDS011;45732;52.850;6.896;2023-02-28T07:01:13;14.07;;;9.82;;
59854;SDS011;45732;52.850;6.896;2023-02-28T07:03:39;16.15;;;9.50;;
59854;SDS011;45732;52.850;6.896;2023-02-28T07:06:05;13.90;;;9.43;;
59854;SDS011;45732;52.850;6.896;2023-02-28T07:08:32;15.30;;;10.38;;
59854;SDS011;45732;52.850;6.896;2023-02-28T07:10:58;16.63;;;13.38;;
59854;SDS011;45732;52.850;6.896;2023-02-28T07:13:24;15.60;;;12.13;;
59854;SDS011;45732;52.850;6.896;2023-02-28T07:15:56;18.88;;;13.93;;
59854;SDS011;45732;52.850;6.896;2023-02-28T07:18:23;15.05;;;10.68;;
59854;SDS011;45732;52.850;6.896;2023-02-28T07:20:49;15.45;;;9.38;;
59854;SDS011;45732;52.850;6.896;2023-02-28T07:23:16;16.02;;;10.00;;
59854;SDS011;45732;52.850;6.896;2023-02-28T07:25:41;13.55;;;9.32;;
59854;SDS011;45732;52.850;6.896;2023-02-28T07:28:07;14.70;;;8.88;;
59854;SDS011;45732;52.850;6.896;2023-02-28T07:30:33;12.65;;;8.90;;
59854;SDS011;45732;52.850;6.896;2023-02-28T07:32:59;14.95;;;8.82;;
59854;SDS011;45732;52.850;6.896;2023-02-28T07:35:24;16.52;;;9.23;;
59854;SDS011;45732;52.850;6.896;2023-02-28T07:37:50;16.55;;;9.80;;
59854;SDS011;45732;52.850;6.896;2023-02-28T07:40:16;14.65;;;9.52;;
59854;SDS011;45732;52.850;6.896;2023-02-28T07:42:43;11.27;;;8.70;;
59854;SDS011;45732;52.850;6.896;2023-02-28T07:45:09;13.30;;;9.23;;
59854;SDS011;45732;52.850;6.896;2023-02-28T07:47:39;16.35;;;9.63;;
59854;SDS011;45732;52.850;6.896;2023-02-28T07:50:07;17.92;;;9.65;;
59854;SDS011;45732;52.850;6.896;2023-02-28T07:52:35;15.18;;;9.52;;
59854;SDS011;45732;52.850;6.896;2023-02-28T07:55:02;13.77;;;9.10;;
59854;SDS011;45732;52.850;6.896;2023-02-28T07:57:29;13.77;;;9.05;;
59854;SDS011;45732;52.850;6.896;2023-02-28T07:59:55;14.63;;;9.43;;
59854;SDS011;45732;52.850;6.896;2023-02-28T08:02:21;13.27;;;9.80;;
59854;SDS011;45732;52.850;6.896;2023-02-28T08:04:46;16.58;;;9.10;;
59854;SDS011;45732;52.850;6.896;2023-02-28T08:07:13;14.77;;;8.95;;
59854;SDS011;45732;52.850;6.896;2023-02-28T08:09:41;12.25;;;8.82;;
59854;SDS011;45732;52.850;6.896;2023-02-28T08:12:07;15.27;;;9.77;;
59854;SDS011;45732;52.850;6.896;2023-02-28T08:14:33;12.35;;;8.82;;
59854;SDS011;45732;52.850;6.896;2023-02-28T08:16:59;16.98;;;10.13;;
59854;SDS011;45732;52.850;6.896;2023-02-28T08:19:25;14.02;;;9.50;;
59854;SDS011;45732;52.850;6.896;2023-02-28T08:21:51;16.23;;;10.18;;
59854;SDS011;45732;52.850;6.896;2023-02-28T08:24:17;15.38;;;10.70;;
59854;SDS011;45732;52.850;6.896;2023-02-28T08:26:43;16.15;;;10.63;;
59854;SDS011;45732;52.850;6.896;2023-02-28T08:29:09;16.08;;;10.52;;
59854;SDS011;45732;52.850;6.896;2023-02-28T08:31:35;14.57;;;9.52;;
59854;SDS011;45732;52.850;6.896;2023-02-28T08:34:07;14.10;;;9.65;;
59854;SDS011;45732;52.850;6.896;2023-02-28T08:38:59;14.68;;;9.90;;
59854;SDS011;45732;52.850;6.896;2023-02-28T08:41:26;15.88;;;9.98;;
59854;SDS011;45732;52.850;6.896;2023-02-28T08:43:51;13.73;;;9.55;;
59854;SDS011;45732;52.850;6.896;2023-02-28T08:46:19;13.55;;;9.63;;
59854;SDS011;45732;52.850;6.896;2023-02-28T08:48:45;14.20;;;8.80;;
59854;SDS011;45732;52.850;6.896;2023-02-28T08:51:12;13.20;;;8.52;;
59854;SDS011;45732;52.850;6.896;2023-02-28T08:53:43;12.35;;;8.50;;
59854;SDS011;45732;52.850;6.896;2023-02-28T08:56:14;15.15;;;8.45;;
59854;SDS011;45732;52.850;6.896;2023-02-28T08:58:41;10.68;;;7.18;;
59854;SDS011;45732;52.850;6.896;2023-02-28T09:01:08;12.98;;;7.97;;
59854;SDS011;45732;52.850;6.896;2023-02-28T09:03:35;13.23;;;9.50;;
59854;SDS011;45732;52.850;6.896;2023-02-28T09:06:01;13.73;;;10.52;;
59854;SDS011;45732;52.850;6.896;2023-02-28T09:08:27;12.40;;;9.40;;
59854;SDS011;45732;52.850;6.896;2023-02-28T09:10:55;12.82;;;11.13;;
59854;SDS011;45732;52.850;6.896;2023-02-28T09:13:22;14.43;;;8.73;;
59854;SDS011;45732;52.850;6.896;2023-02-28T09:15:49;11.15;;;8.38;;
59854;SDS011;45732;52.850;6.896;2023-02-28T09:18:15;12.35;;;9.10;;
59854;SDS011;45732;52.850;6.896;2023-02-28T09:20:41;10.25;;;7.45;;
59854;SDS011;45732;52.850;6.896;2023-02-28T09:23:08;9.75;;;7.13;;
59854;SDS011;45732;52.850;6.896;2023-02-28T09:25:35;11.10;;;7.88;;
59854;SDS011;45732;52.850;6.896;2023-02-28T09:28:01;11.23;;;7.63;;
59854;SDS011;45732;52.850;6.896;2023-02-28T09:30:28;11.38;;;7.00;;
59854;SDS011;45732;52.850;6.896;2023-02-28T09:32:54;10.45;;;7.80;;
59854;SDS011;45732;52.850;6.896;2023-02-28T09:35:21;13.60;;;7.05;;
59854;SDS011;45732;52.850;6.896;2023-02-28T09:37:51;11.85;;;8.45;;
59854;SDS011;45732;52.850;6.896;2023-02-28T09:40:18;13.15;;;9.85;;
59854;SDS011;45732;52.850;6.896;2023-02-28T09:42:47;10.60;;;6.82;;
59854;SDS011;45732;52.850;6.896;2023-02-28T09:48:20;10.65;;;7.13;;
59854;SDS011;45732;52.850;6.896;2023-02-28T09:50:52;12.57;;;7.45;;
59854;SDS011;45732;52.850;6.896;2023-02-28T09:53:26;11.90;;;6.82;;
59854;SDS011;45732;52.850;6.896;2023-02-28T09:56:01;10.98;;;6.68;;
59854;SDS011;45732;52.850;6.896;2023-02-28T09:58:49;11.07;;;7.20;;
59854;SDS011;45732;52.850;6.896;2023-02-28T10:10:01;10.73;;;6.28;;
59854;SDS011;45732;52.850;6.896;2023-02-28T10:12:32;10.32;;;5.28;;
59854;SDS011;45732;52.850;6.896;2023-02-28T10:15:01;8.75;;;6.07;;
59854;SDS011;45732;52.850;6.896;2023-02-28T10:17:32;8.10;;;4.70;;
59854;SDS011;45732;52.850;6.896;2023-02-28T10:20:07;9.10;;;5.43;;
59854;SDS011;45732;52.850;6.896;2023-02-28T10:25:32;7.72;;;4.35;;
59854;SDS011;45732;52.850;6.896;2023-02-28T10:28:13;9.02;;;6.50;;
59854;SDS011;45732;52.850;6.896;2023-02-28T10:30:50;8.05;;;4.00;;
59854;SDS011;45732;52.850;6.896;2023-02-28T10:33:25;8.15;;;3.63;;
59854;SDS011;45732;52.850;6.896;2023-02-28T10:36:02;6.60;;;3.42;;
59854;SDS011;45732;52.850;6.896;2023-02-28T10:38:32;7.05;;;3.28;;
59854;SDS011;45732;52.850;6.896;2023-02-28T10:43:37;6.50;;;3.08;;
59854;SDS011;45732;52.850;6.896;2023-02-28T10:46:09;5.78;;;2.97;;
59854;SDS011;45732;52.850;6.896;2023-02-28T10:51:37;5.68;;;3.10;;
59854;SDS011;45732;52.850;6.896;2023-02-28T10:54:04;7.05;;;2.90;;
59854;SDS011;45732;52.850;6.896;2023-02-28T10:56:30;5.75;;;3.00;;
59854;SDS011;45732;52.850;6.896;2023-02-28T10:58:58;6.40;;;3.15;;
59854;SDS011;45732;52.850;6.896;2023-02-28T11:01:45;6.47;;;3.20;;
59854;SDS011;45732;52.850;6.896;2023-02-28T11:04:31;4.90;;;2.50;;
59854;SDS011;45732;52.850;6.896;2023-02-28T11:07:22;6.18;;;2.88;;
59854;SDS011;45732;52.850;6.896;2023-02-28T11:09:53;5.40;;;2.95;;
59854;SDS011;45732;52.850;6.896;2023-02-28T11:12:42;5.63;;;3.05;;
59854;SDS011;45732;52.850;6.896;2023-02-28T11:15:24;6.55;;;3.25;;
59854;SDS011;45732;52.850;6.896;2023-02-28T11:18:01;6.75;;;3.25;;
59854;SDS011;45732;52.850;6.896;2023-02-28T11:20:50;6.00;;;2.92;;
59854;SDS011;45732;52.850;6.896;2023-02-28T11:23:18;6.10;;;3.13;;
59854;SDS011;45732;52.850;6.896;2023-02-28T11:25:52;5.63;;;2.85;;
59854;SDS011;45732;52.850;6.896;2023-02-28T11:28:33;7.13;;;3.42;;
59854;SDS011;45732;52.850;6.896;2023-02-28T11:36:12;6.55;;;3.40;;
59854;SDS011;45732;52.850;6.896;2023-02-28T11:38:59;5.60;;;3.42;;
59854;SDS011;45732;52.850;6.896;2023-02-28T11:41:44;7.00;;;3.33;;
59854;SDS011;45732;52.850;6.896;2023-02-28T11:47:17;6.28;;;2.83;;
59854;SDS011;45732;52.850;6.896;2023-02-28T11:55:31;5.68;;;2.95;;
59854;SDS011;45732;52.850;6.896;2023-02-28T12:11:55;5.60;;;3.13;;
59854;SDS011;45732;52.850;6.896;2023-02-28T12:22:29;4.75;;;3.00;;
59854;SDS011;45732;52.850;6.896;2023-02-28T12:27:33;4.88;;;2.80;;
59854;SDS011;45732;52.850;6.896;2023-02-28T12:32:42;7.32;;;3.38;;
59854;SDS011;45732;52.850;6.896;2023-02-28T12:35:13;6.30;;;3.20;;
59854;SDS011;45732;52.850;6.896;2023-02-28T12:37:47;5.65;;;3.00;;
59854;SDS011;45732;52.850;6.896;2023-02-28T12:40:42;5.68;;;3.10;;
59854;SDS011;45732;52.850;6.896;2023-02-28T12:43:30;7.30;;;3.60;;
59854;SDS011;45732;52.850;6.896;2023-02-28T12:48:56;4.68;;;2.55;;
59854;SDS011;45732;52.850;6.896;2023-02-28T12:51:24;6.30;;;3.00;;
59854;SDS011;45732;52.850;6.896;2023-02-28T12:59:16;4.63;;;2.78;;
59854;SDS011;45732;52.850;6.896;2023-02-28T13:02:00;5.05;;;2.90;;
59854;SDS011;45732;52.850;6.896;2023-02-28T13:09:59;7.72;;;3.10;;
59854;SDS011;45732;52.850;6.896;2023-02-28T13:12:27;7.35;;;4.35;;
59854;SDS011;45732;52.850;6.896;2023-02-28T13:17:48;5.70;;;2.90;;
59854;SDS011;45732;52.850;6.896;2023-02-28T13:20:16;7.32;;;2.95;;
59854;SDS011;45732;52.850;6.896;2023-02-28T13:22:54;7.90;;;3.20;;
59854;SDS011;45732;52.850;6.896;2023-02-28T13:27:47;6.65;;;2.95;;
59854;SDS011;45732;52.850;6.896;2023-02-28T13:47:15;4.97;;;2.88;;
59854;SDS011;45732;52.850;6.896;2023-02-28T13:51:48;5.15;;;2.83;;
59854;SDS011;45732;52.850;6.896;2023-02-28T13:57:33;5.70;;;2.60;;
59854;SDS011;45732;52.850;6.896;2023-02-28T14:06:08;6.90;;;3.47;;
59854;SDS011;45732;52.850;6.896;2023-02-28T14:08:53;7.90;;;3.20;;
59854;SDS011;45732;52.850;6.896;2023-02-28T14:11:36;6.45;;;3.13;;
59854;SDS011;45732;52.850;6.896;2023-02-28T14:14:04;5.95;;;2.72;;
59854;SDS011;45732;52.850;6.896;2023-02-28T14:16:43;5.93;;;3.10;;
59854;SDS011;45732;52.850;6.896;2023-02-28T14:27:30;5.15;;;2.70;;
59854;SDS011;45732;52.850;6.896;2023-02-28T14:33:01;4.93;;;2.78;;
59854;SDS011;45732;52.850;6.896;2023-02-28T14:36:10;5.10;;;2.70;;
59854;SDS011;45732;52.850;6.896;2023-02-28T14:38:47;7.30;;;3.28;;
59854;SDS011;45732;52.850;6.896;2023-02-28T14:41:24;5.53;;;3.03;;
59854;SDS011;45732;52.850;6.896;2023-02-28T14:44:13;4.78;;;2.67;;
59854;SDS011;45732;52.850;6.896;2023-02-28T14:46:42;5.70;;;2.92;;
59854;SDS011;45732;52.850;6.896;2023-02-28T14:49:19;4.68;;;2.80;;
59854;SDS011;45732;52.850;6.896;2023-02-28T14:54:53;6.13;;;2.83;;
59854;SDS011;45732;52.850;6.896;2023-02-28T14:57:33;4.72;;;2.70;;
59854;SDS011;45732;52.850;6.896;2023-02-28T15:00:09;5.28;;;2.80;;
59854;SDS011;45732;52.850;6.896;2023-02-28T15:02:41;4.78;;;2.42;;
59854;SDS011;45732;52.850;6.896;2023-02-28T15:05:29;5.05;;;2.50;;
59854;SDS011;45732;52.850;6.896;2023-02-28T15:08:02;4.25;;;2.45;;
59854;SDS011;45732;52.850;6.896;2023-02-28T15:10:38;6.15;;;2.63;;
59854;SDS011;45732;52.850;6.896;2023-02-28T15:13:08;4.38;;;2.42;;
59854;SDS011;45732;52.850;6.896;2023-02-28T15:21:15;4.50;;;2.67;;
59854;SDS011;45732;52.850;6.896;2023-02-28T15:23:53;5.68;;;2.60;;
59854;SDS011;45732;52.850;6.896;2023-02-28T15:26:50;4.75;;;2.72;;
59854;SDS011;45732;52.850;6.896;2023-02-28T15:29:46;6.40;;;2.78;;
59854;SDS011;45732;52.850;6.896;2023-02-28T15:32:21;6.45;;;2.83;;
59854;SDS011;45732;52.850;6.896;2023-02-28T15:34:51;5.68;;;2.95;;
59854;SDS011;45732;52.850;6.896;2023-02-28T15:39:56;4.65;;;2.78;;
59854;SDS011;45732;52.850;6.896;2023-02-28T15:42:29;5.43;;;2.60;;
59854;SDS011;45732;52.850;6.896;2023-02-28T15:44:56;4.75;;;2.78;;
59854;SDS011;45732;52.850;6.896;2023-02-28T15:47:25;4.63;;;2.85;;
59854;SDS011;45732;52.850;6.896;2023-02-28T15:49:58;5.28;;;2.75;;
59854;SDS011;45732;52.850;6.896;2023-02-28T15:52:39;5.32;;;2.90;;
59854;SDS011;45732;52.850;6.896;2023-02-28T15:55:11;9.43;;;3.30;;
59854;SDS011;45732;52.850;6.896;2023-02-28T15:57:46;4.75;;;2.20;;
59854;SDS011;45732;52.850;6.896;2023-02-28T16:00:18;5.78;;;2.53;;
59854;SDS011;45732;52.850;6.896;2023-02-28T16:02:46;5.47;;;2.58;;
59854;SDS011;45732;52.850;6.896;2023-02-28T16:05:29;4.05;;;2.40;;
59854;SDS011;45732;52.850;6.896;2023-02-28T16:08:14;4.13;;;2.47;;
59854;SDS011;45732;52.850;6.896;2023-02-28T16:10:40;3.42;;;2.42;;
59854;SDS011;45732;52.850;6.896;2023-02-28T16:13:06;5.07;;;2.70;;
59854;SDS011;45732;52.850;6.896;2023-02-28T16:15:37;5.65;;;2.60;;
59854;SDS011;45732;52.850;6.896;2023-02-28T16:18:08;5.72;;;2.70;;
59854;SDS011;45732;52.850;6.896;2023-02-28T16:20:36;5.82;;;2.55;;
59854;SDS011;45732;52.850;6.896;2023-02-28T16:23:02;5.53;;;3.00;;
59854;SDS011;45732;52.850;6.896;2023-02-28T16:25:35;4.38;;;2.70;;
59854;SDS011;45732;52.850;6.896;2023-02-28T16:28:03;4.65;;;2.75;;
59854;SDS011;45732;52.850;6.896;2023-02-28T16:30:33;5.43;;;2.67;;
59854;SDS011;45732;52.850;6.896;2023-02-28T16:32:59;4.88;;;2.67;;
59854;SDS011;45732;52.850;6.896;2023-02-28T16:35:25;5.60;;;2.83;;
59854;SDS011;45732;52.850;6.896;2023-02-28T16:37:51;6.53;;;2.70;;
59854;SDS011;45732;52.850;6.896;2023-02-28T16:40:20;4.68;;;2.67;;
59854;SDS011;45732;52.850;6.896;2023-02-28T16:42:51;6.07;;;2.85;;
59854;SDS011;45732;52.850;6.896;2023-02-28T16:45:20;5.53;;;2.90;;
59854;SDS011;45732;52.850;6.896;2023-02-28T16:47:48;6.95;;;3.03;;
59854;SDS011;45732;52.850;6.896;2023-02-28T16:50:18;5.80;;;2.88;;
59854;SDS011;45732;52.850;6.896;2023-02-28T16:52:52;6.85;;;3.10;;
59854;SDS011;45732;52.850;6.896;2023-02-28T16:55:19;4.47;;;2.83;;
59854;SDS011;45732;52.850;6.896;2023-02-28T16:57:52;4.72;;;2.67;;
59854;SDS011;45732;52.850;6.896;2023-02-28T17:00:20;6.20;;;2.95;;
59854;SDS011;45732;52.850;6.896;2023-02-28T17:02:46;5.95;;;3.13;;
59854;SDS011;45732;52.850;6.896;2023-02-28T17:05:12;5.70;;;3.08;;
59854;SDS011;45732;52.850;6.896;2023-02-28T17:07:40;6.68;;;3.10;;
59854;SDS011;45732;52.850;6.896;2023-02-28T17:10:11;5.32;;;2.95;;
59854;SDS011;45732;52.850;6.896;2023-02-28T17:12:48;5.70;;;2.90;;
59854;SDS011;45732;52.850;6.896;2023-02-28T17:15:15;6.40;;;3.47;;
59854;SDS011;45732;52.850;6.896;2023-02-28T17:17:42;6.97;;;3.40;;
59854;SDS011;45732;52.850;6.896;2023-02-28T17:20:13;5.00;;;3.10;;
59854;SDS011;45732;52.850;6.896;2023-02-28T17:22:43;5.65;;;3.35;;
59854;SDS011;45732;52.850;6.896;2023-02-28T17:25:09;5.90;;;3.10;;
59854;SDS011;45732;52.850;6.896;2023-02-28T17:27:36;5.90;;;3.17;;
59854;SDS011;45732;52.850;6.896;2023-02-28T17:30:08;5.93;;;2.92;;
59854;SDS011;45732;52.850;6.896;2023-02-28T17:32:40;7.30;;;3.30;;
59854;SDS011;45732;52.850;6.896;2023-02-28T17:35:06;5.32;;;3.00;;
59854;SDS011;45732;52.850;6.896;2023-02-28T17:37:33;6.10;;;3.40;;
59854;SDS011;45732;52.850;6.896;2023-02-28T17:39:58;6.13;;;2.92;;
59854;SDS011;45732;52.850;6.896;2023-02-28T17:42:24;7.03;;;3.17;;
59854;SDS011;45732;52.850;6.896;2023-02-28T17:44:50;6.95;;;3.10;;
59854;SDS011;45732;52.850;6.896;2023-02-28T17:47:15;6.63;;;3.92;;
59854;SDS011;45732;52.850;6.896;2023-02-28T17:49:41;9.80;;;5.03;;
59854;SDS011;45732;52.850;6.896;2023-02-28T17:52:07;9.80;;;6.38;;
59854;SDS011;45732;52.850;6.896;2023-02-28T17:54:33;12.52;;;8.30;;
59854;SDS011;45732;52.850;6.896;2023-02-28T17:56:59;13.07;;;7.70;;
59854;SDS011;45732;52.850;6.896;2023-02-28T17:59:25;13.02;;;7.95;;